Vremea acum in Sibiu - Romania

Vrei sa afli care e starea vremii acum in Sibiu - Romania? Dorim sa iti furnizam starea vremii pentru Sibiu - Romania. Starea vremii Sibiu - Romania pentru astazi.

Vremea acum in Sibiu

Temperatura: 17 °C

Se simte ca: 17 °C
Innorat: 0 %
Precipitatii: 0 %
Presiune atmosferica: 1019 hPa
Umiditate: 59%
Vizibilitate: 10 km
Vantul bate din E cu 6.1 km/h

Evolutia vremii in Sibiu pe ore

Ora: 11:00
Parțial noros
Temperatura: 17.2°C
Sansa de precipitatii: 0%
Ora Descriere Temp Se simte Precipitatii Umiditate Vant
00:00Parțial noros13.2°12.9°0%58%SSW 7.2 KM/H
01:00Parțial noros12.9°12.7°0%59%SSW 6.5 KM/H
02:00Parțial noros12.6°12.4°0%60%SSW 6.1 KM/H
03:00Parțial noros12.3°12.3°0%62%SSW 5.4 KM/H
04:00Parțial noros12°12.2°0%64%SW 4.3 KM/H
05:00Parțial noros11.7°12.1°0%66%SW 3.6 KM/H
06:00Parțial noros12.3°12.6°0%65%WSW 3.2 KM/H
07:00Parțial noros13°13.1°0%64%W 2.5 KM/H
08:00Parțial noros13.6°13.6°0%63%W 2.2 KM/H
09:00Parțial noros14.8°14.8°0%58%WNW 4 KM/H
10:00Parțial noros16°16°0%54%NW 6.1 KM/H
11:00Parțial noros17.2°17.2°0%49%NNW 7.9 KM/H
12:00Parțial noros17.4°17.4°0%50%NNW 8.6 KM/H
13:00Parțial noros17.6°17.6°0%51%NNW 9 KM/H
14:00Parțial noros17.8°17.8°0%52%NNW 9.7 KM/H
15:00Parțial noros16.8°16.8°0%57%NW 9 KM/H
16:00Parțial noros15.9°15.9°0%63%NW 7.9 KM/H
17:00Parțial noros14.9°14.9°0%69%NW 7.2 KM/H
18:00Burniță uşoară pe porțiuni13.9°14°28%75%NW 6.1 KM/H
19:00Parțial noros12.8°13.1°56%81%WNW 4.7 KM/H
20:00Burniță uşoară pe porțiuni11.8°12.2°84%87%WNW 3.6 KM/H
21:00Burniță uşoară pe porțiuni11.5°11.8°78%89%W 2.5 KM/H
22:00Burniță uşoară pe porțiuni11.3°11.4°73%90%WSW 1.8 KM/H
23:00Burniță uşoară pe porțiuni11°11°67%91%WSW 0.7 KM/H